Hall Beach Airport
CYUX : now visible

Airfield :











YOU CAN JOIN US ON...

 
LOGIN :

Register | Disclaimer

   EN    FR    IT 

 









Legend :    VFR   Marginal VFR   IFR   Intensive IFR   Very Intensive IFR
Visi :
Ceiling :
>= 8 km
>= 3000ft
5 to 8 km
1000 to 3000 ft
1500m to 5 km
500 to 1000 ft
800 to 1500m
200 to 500 ft
< 800m
< 200 ft
Symbols :   Thunderstorms  Fog  Heavy snow  Heavy precipitations  Wind > 20 kt






- Airport Elevation : 27 ft
- IATA code : YUX


CYUX - Hall Beach

CURRENT METAR :
  • 300820Z AUTO 22010G15KT 5SM -SN SCT027 M20/M22 A2999 RMK SLP157

EXPIRED METARs :
  • 300805Z AUTO 20009KT 6SM -SN SCT029 M20/M22 A2999 RMK SLP158
  • 300725Z AUTO 22014KT 5SM -SN CLR M21/M23 A2999 RMK SLP157
  • 300700Z AUTO 21009KT 9SM CLR M21/M24 A2999 RMK SLP158
  • 300631Z AUTO 22010KT 9SM CLR M23/M25 A2999 RMK SLP158
  • 300623Z AUTO 23006KT 6SM -SN CLR M24/M26 A3000 RMK SLP159
  • 300616Z AUTO 23007KT 4SM -SN FEW014 M24/M26 A3000 RMK SLP160
  • 300604Z AUTO 24010KT 6SM BR FEW016 M23/M25 A3000 RMK SLP160

TAF TAF CYUX
Valid from the 30 at 07:00 until the 30 at 19:00 UTC


300638Z 3007/3019 24010KT 6SM -SN FEW015 BKN030
TEMPO 3007/3010 3SM -SN BLSN BR BKN015
BECMG 3008/3010 20015G25KT
FM301000 20015G25KT 6SM -SN BLSN SCT010 OVC030
TEMPO 3010/3015 21/4SM -SN BLSN OVC010
FM301500 18018G28KT 3SM -SN BLSN OVC020
TEMPO 3015/3019 3/4SM -SN BLSN VV008 RMK FCST BASED ON AUTO OBS. NXT FCST BY 301300Z
CZEG FIR / North America



MET'MAP, your aeronautical weather chart ! - Copyright ORBIFLY December 2007 - Disclaimer

ORBIFLY MET'MAP TEAM :

Programming & Development : Alexandra Zaïnal
Concept & original design : Baudouin d'Aumeries
Assistance for programming : Marc-Olivier Méhu
Technical & hardware support : Manuel Goepfert

Contact : metmap@orbifly.com




SOURCES & CREDITS :

   NOAA       Earth
Advisory